createdAt,value
2018-08-12T00:00:54.964Z,48.30
2018-08-12T00:03:29.589Z,48.30
2018-08-12T00:06:04.008Z,48.30
2018-08-12T00:08:39.876Z,48.40
2018-08-12T00:11:15.020Z,48.40
2018-08-12T00:13:49.335Z,48.40
2018-08-12T00:16:23.578Z,48.50
2018-08-12T00:18:57.928Z,48.50
2018-08-12T00:21:32.305Z,48.50
2018-08-12T00:24:06.693Z,48.60
2018-08-12T00:26:41.003Z,48.60
2018-08-12T00:29:15.344Z,48.60
2018-08-12T00:31:49.804Z,48.70
2018-08-12T00:34:24.107Z,48.70
2018-08-12T00:36:58.471Z,48.70
2018-08-12T00:39:32.789Z,48.70
2018-08-12T00:42:07.184Z,48.80
2018-08-12T00:44:41.353Z,48.90
2018-08-12T00:47:16.648Z,48.90
2018-08-12T00:49:51.000Z,49.10
2018-08-12T00:52:25.234Z,48.90
2018-08-12T00:54:59.636Z,49.00
2018-08-12T00:57:33.957Z,49.10
2018-08-12T01:00:13.107Z,49.10
2018-08-12T01:02:47.272Z,49.20
2018-08-12T01:05:21.620Z,49.30
2018-08-12T01:07:55.976Z,49.30
2018-08-12T01:10:30.624Z,49.30
2018-08-12T01:13:04.832Z,49.30
2018-08-12T01:15:39.187Z,49.40
2018-08-12T01:18:13.516Z,49.40
2018-08-12T01:20:47.968Z,49.50
2018-08-12T01:23:22.280Z,49.30
2018-08-12T01:25:56.560Z,49.40
2018-08-12T01:28:30.908Z,49.40
2018-08-12T01:31:05.251Z,49.50
2018-08-12T01:33:39.576Z,49.40
2018-08-12T01:36:13.824Z,49.50
2018-08-12T01:38:48.224Z,47.60
2018-08-12T01:41:22.600Z,50.00
2018-08-12T01:43:56.784Z,51.30
2018-08-12T01:46:31.124Z,50.80
2018-08-12T01:49:05.575Z,50.50
2018-08-12T01:51:39.932Z,50.30
2018-08-12T01:54:14.260Z,46.70
2018-08-12T01:56:48.603Z,51.60
2018-08-12T01:59:22.952Z,51.30
2018-08-12T02:01:57.253Z,50.90
2018-08-12T02:04:31.604Z,50.60
2018-08-12T02:07:05.806Z,50.40
2018-08-12T02:09:40.179Z,50.40
2018-08-12T02:12:14.415Z,49.40
2018-08-12T02:14:48.795Z,50.50
2018-08-12T02:17:23.079Z,50.00
2018-08-12T02:19:57.352Z,50.80
2018-08-12T02:22:31.640Z,50.70
2018-08-12T02:25:06.369Z,50.50
2018-08-12T02:27:40.784Z,50.50
2018-08-12T02:30:15.080Z,50.40
2018-08-12T02:32:49.307Z,50.40
2018-08-12T02:35:23.728Z,50.30
2018-08-12T02:37:57.880Z,50.30
2018-08-12T02:40:32.216Z,50.20
2018-08-12T02:43:06.652Z,50.30
2018-08-12T02:45:40.977Z,50.30
2018-08-12T02:48:15.308Z,50.30
2018-08-12T02:50:49.812Z,50.20
2018-08-12T02:53:24.056Z,50.30
2018-08-12T02:55:58.344Z,50.20
2018-08-12T02:58:32.664Z,50.30
2018-08-12T03:01:06.984Z,50.30
2018-08-12T03:03:41.341Z,50.30
2018-08-12T03:06:15.663Z,50.00
2018-08-12T03:08:49.952Z,49.20
2018-08-12T03:11:24.311Z,51.10
2018-08-12T03:13:58.497Z,51.00
2018-08-12T03:16:32.736Z,49.00
2018-08-12T03:19:07.001Z,48.70
2018-08-12T03:21:41.164Z,51.70
2018-08-12T03:24:15.394Z,51.00
2018-08-12T03:26:49.692Z,52.40
2018-08-12T03:29:23.884Z,52.40
2018-08-12T03:31:58.221Z,51.40
2018-08-12T03:34:32.403Z,52.30
2018-08-12T03:37:06.887Z,54.10
2018-08-12T03:39:41.219Z,53.90
2018-08-12T03:42:15.623Z,51.30
2018-08-12T03:44:49.964Z,55.20
2018-08-12T03:47:24.351Z,52.60
2018-08-12T03:49:58.666Z,53.70
2018-08-12T03:52:32.955Z,53.80
2018-08-12T03:55:07.821Z,50.70
2018-08-12T03:57:42.071Z,51.10
2018-08-12T04:00:17.475Z,53.00
2018-08-12T04:02:51.711Z,54.20
2018-08-12T04:05:25.940Z,55.00
2018-08-12T04:08:00.092Z,54.30
2018-08-12T04:10:34.341Z,53.60
2018-08-12T04:13:08.628Z,53.10
2018-08-12T04:15:42.949Z,52.70
2018-08-12T04:18:17.235Z,52.50
2018-08-12T04:20:51.432Z,52.50
2018-08-12T04:23:25.591Z,52.40
2018-08-12T04:25:59.915Z,52.90
2018-08-12T04:28:34.283Z,52.70
2018-08-12T04:31:08.564Z,52.50
2018-08-12T04:33:42.775Z,52.40
2018-08-12T04:36:17.224Z,51.40
2018-08-12T04:38:51.508Z,48.50
2018-08-12T04:41:25.815Z,50.30
2018-08-12T04:44:00.036Z,52.50
2018-08-12T04:46:34.916Z,53.20
2018-08-12T04:49:10.044Z,52.90
2018-08-12T04:51:44.368Z,54.70
2018-08-12T04:54:18.603Z,54.30
2018-08-12T04:56:52.922Z,57.60
2018-08-12T04:59:27.361Z,54.70
2018-08-12T05:02:01.617Z,57.90
2018-08-12T05:04:35.927Z,54.70
2018-08-12T05:07:10.200Z,55.30
2018-08-12T05:09:44.516Z,53.20
2018-08-12T05:12:18.836Z,51.30
2018-08-12T05:14:53.171Z,57.60
2018-08-12T05:17:27.526Z,55.80
2018-08-12T05:20:01.808Z,56.40
2018-08-12T05:22:36.181Z,53.30
2018-08-12T05:25:10.659Z,56.40
2018-08-12T05:27:44.996Z,50.20
2018-08-12T05:30:19.235Z,55.50
2018-08-12T05:32:53.524Z,59.60
2018-08-12T05:35:27.707Z,61.80
2018-08-12T05:38:02.069Z,63.20
2018-08-12T05:40:36.300Z,63.40
2018-08-12T05:43:10.712Z,63.40
2018-08-12T05:45:44.881Z,64.70
2018-08-12T05:48:19.089Z,65.80
2018-08-12T05:50:53.523Z,64.50
2018-08-12T05:53:27.825Z,66.20
2018-08-12T05:56:02.322Z,64.30
2018-08-12T05:58:36.904Z,65.50
2018-08-12T06:01:11.105Z,66.60
2018-08-12T06:03:45.336Z,66.20
2018-08-12T06:06:19.647Z,69.50
2018-08-12T06:08:53.924Z,70.30
2018-08-12T06:11:28.200Z,70.20
2018-08-12T06:14:02.516Z,70.70
2018-08-12T06:16:36.731Z,70.60
2018-08-12T06:19:11.098Z,70.00
2018-08-12T06:21:45.319Z,70.30
2018-08-12T06:24:19.625Z,70.40
2018-08-12T06:26:53.952Z,69.80
2018-08-12T06:29:28.348Z,69.10
2018-08-12T06:32:02.721Z,68.60
2018-08-12T06:34:37.028Z,67.90
2018-08-12T06:37:11.505Z,68.30
2018-08-12T06:39:45.821Z,66.70
2018-08-12T06:42:20.009Z,66.10
2018-08-12T06:44:54.425Z,65.70
2018-08-12T06:47:29.392Z,65.90
2018-08-12T06:50:04.392Z,65.20
2018-08-12T06:52:39.163Z,72.40
2018-08-12T06:55:13.980Z,72.80
2018-08-12T06:57:48.227Z,66.10
2018-08-12T07:00:22.565Z,67.00
2018-08-12T07:02:56.892Z,66.10
2018-08-12T07:05:31.220Z,65.80
2018-08-12T07:08:05.756Z,60.60
2018-08-12T07:10:39.985Z,59.80
2018-08-12T07:13:14.388Z,59.70
2018-08-12T07:15:48.588Z,56.50
2018-08-12T07:18:22.915Z,57.90
2018-08-12T07:20:57.096Z,54.40
2018-08-12T07:23:31.407Z,55.00
2018-08-12T07:26:05.620Z,54.90
2018-08-12T07:28:39.912Z,55.60
2018-08-12T07:31:14.211Z,54.70
2018-08-12T07:33:48.528Z,55.20
2018-08-12T07:36:22.819Z,55.00
2018-08-12T07:38:57.504Z,54.40
2018-08-12T07:41:31.803Z,54.00
2018-08-12T07:44:06.175Z,54.20
2018-08-12T07:46:40.571Z,53.10
2018-08-12T07:49:14.863Z,52.80
2018-08-12T07:51:49.156Z,50.80
2018-08-12T07:54:23.504Z,49.30
2018-08-12T07:56:57.780Z,49.10
2018-08-12T07:59:32.121Z,47.20
2018-08-12T08:02:06.481Z,45.10
2018-08-12T08:04:40.761Z,45.40
2018-08-12T08:07:15.104Z,45.10
2018-08-12T08:09:49.296Z,43.30
2018-08-12T08:12:23.648Z,43.80
2018-08-12T08:14:57.975Z,41.70
2018-08-12T08:17:32.172Z,43.70
2018-08-12T08:20:07.782Z,41.20
2018-08-12T08:22:42.696Z,42.70
2018-08-12T08:25:16.877Z,42.20
2018-08-12T08:27:51.234Z,42.50
2018-08-12T08:30:25.550Z,42.90
2018-08-12T08:32:59.932Z,42.50
2018-08-12T08:35:34.308Z,42.70
2018-08-12T08:38:08.598Z,43.60
2018-08-12T08:40:42.956Z,43.20
2018-08-12T08:43:17.315Z,43.00
2018-08-12T08:45:51.640Z,42.40
2018-08-12T08:48:25.984Z,41.70
2018-08-12T08:51:00.314Z,42.00
2018-08-12T08:53:34.626Z,41.00
2018-08-12T08:56:09.049Z,40.60
2018-08-12T08:58:43.339Z,40.40
2018-08-12T09:01:17.916Z,40.90
2018-08-12T09:03:52.340Z,40.50
2018-08-12T09:06:26.731Z,39.70
2018-08-12T09:09:01.236Z,39.60
2018-08-12T09:11:35.249Z,40.10
2018-08-12T09:14:10.593Z,39.90
2018-08-12T09:16:45.013Z,39.90
2018-08-12T09:19:19.701Z,39.20
2018-08-12T09:21:54.516Z,40.30
2018-08-12T09:24:29.346Z,39.50
2018-08-12T09:27:04.587Z,39.90
2018-08-12T09:29:38.795Z,40.00
2018-08-12T09:32:12.976Z,39.00
2018-08-12T09:34:47.308Z,39.70
2018-08-12T09:37:21.757Z,39.40
2018-08-12T09:39:56.136Z,39.30
2018-08-12T09:42:30.504Z,40.40
2018-08-12T09:45:06.220Z,40.20
2018-08-12T09:47:40.780Z,39.50
2018-08-12T09:50:16.228Z,40.30
2018-08-12T09:52:51.761Z,40.90
2018-08-12T09:55:26.150Z,40.90
2018-08-12T09:58:01.143Z,41.10
2018-08-12T10:00:40.069Z,41.20
2018-08-12T10:03:14.239Z,41.10
2018-08-12T10:05:48.524Z,42.90
2018-08-12T10:08:22.876Z,43.40
2018-08-12T10:10:57.142Z,43.10
2018-08-12T10:13:31.448Z,42.60
2018-08-12T10:16:05.752Z,41.40
2018-08-12T10:18:40.065Z,42.10
2018-08-12T10:21:14.351Z,41.80
2018-08-12T10:23:48.727Z,42.10
2018-08-12T10:26:23.075Z,41.60
2018-08-12T10:28:57.984Z,42.50
2018-08-12T10:31:32.392Z,42.80
2018-08-12T10:34:07.566Z,42.70
2018-08-12T10:36:41.785Z,42.40
2018-08-12T10:39:16.072Z,42.90
2018-08-12T10:41:50.372Z,42.60
2018-08-12T10:44:24.686Z,42.70
2018-08-12T10:46:58.904Z,42.40
2018-08-12T10:49:33.124Z,42.30
2018-08-12T10:52:07.452Z,42.60
2018-08-12T10:54:41.783Z,42.40
2018-08-12T10:57:16.055Z,42.90
2018-08-12T10:59:50.412Z,42.10
2018-08-12T11:02:24.712Z,43.20
2018-08-12T11:04:59.352Z,43.10
2018-08-12T11:07:33.682Z,43.10
2018-08-12T11:10:09.007Z,43.20
2018-08-12T11:12:43.368Z,42.80
2018-08-12T11:15:17.709Z,43.00
2018-08-12T11:17:52.039Z,43.00
2018-08-12T11:20:26.377Z,42.00
2018-08-12T11:23:00.676Z,42.40
2018-08-12T11:25:35.084Z,42.20
2018-08-12T11:28:09.423Z,41.90
2018-08-12T11:30:43.665Z,42.10
2018-08-12T11:33:17.844Z,42.40
2018-08-12T11:35:52.143Z,42.40
2018-08-12T11:38:26.348Z,41.60
2018-08-12T11:41:00.720Z,41.40
2018-08-12T11:43:35.068Z,41.60
2018-08-12T11:46:09.380Z,41.30
2018-08-12T11:48:43.703Z,41.90
2018-08-12T11:51:17.912Z,41.90
2018-08-12T11:53:52.324Z,42.10
2018-08-12T11:56:26.590Z,41.50
2018-08-12T11:59:00.819Z,41.90
2018-08-12T12:01:35.172Z,41.40
2018-08-12T12:04:09.355Z,41.50
2018-08-12T12:06:43.808Z,41.50
2018-08-12T12:09:18.132Z,41.90
2018-08-12T12:11:52.479Z,41.00
2018-08-12T12:14:26.708Z,41.00
2018-08-12T12:17:01.164Z,41.20
2018-08-12T12:19:36.283Z,41.90
2018-08-12T12:22:10.636Z,42.00
2018-08-12T12:24:45.050Z,42.00
2018-08-12T12:27:19.427Z,41.30
2018-08-12T12:29:53.638Z,41.90
2018-08-12T12:32:27.904Z,41.00
2018-08-12T12:35:02.177Z,41.50
2018-08-12T12:37:36.396Z,41.40
2018-08-12T12:40:12.676Z,41.70
2018-08-12T12:42:47.704Z,41.20
2018-08-12T12:45:22.010Z,41.70
2018-08-12T12:47:56.351Z,41.60
2018-08-12T12:50:30.663Z,41.40
2018-08-12T12:53:04.988Z,41.20
2018-08-12T12:55:39.268Z,41.00
2018-08-12T12:58:13.525Z,41.30
2018-08-12T13:00:47.952Z,41.70
2018-08-12T13:03:22.220Z,41.80
2018-08-12T13:05:56.556Z,41.80
2018-08-12T13:08:30.875Z,41.70
2018-08-12T13:11:05.637Z,41.60
2018-08-12T13:13:39.968Z,41.80
2018-08-12T13:16:14.220Z,41.50
2018-08-12T13:18:48.555Z,41.40
2018-08-12T13:21:22.859Z,41.40
2018-08-12T13:23:57.080Z,41.70
2018-08-12T13:26:31.469Z,41.40
2018-08-12T13:29:05.791Z,41.60
2018-08-12T13:31:40.149Z,41.80
2018-08-12T13:34:14.488Z,41.40
2018-08-12T13:36:48.733Z,41.40
2018-08-12T13:39:23.060Z,41.80
2018-08-12T13:41:57.336Z,42.00
2018-08-12T13:44:31.744Z,42.80
2018-08-12T13:47:06.244Z,40.90
2018-08-12T13:49:40.496Z,40.50
2018-08-12T13:52:14.888Z,41.30
2018-08-12T13:54:49.164Z,40.90
2018-08-12T13:57:23.331Z,41.10
2018-08-12T13:59:57.644Z,40.60
2018-08-12T14:02:31.960Z,39.70
2018-08-12T14:05:06.391Z,40.30
2018-08-12T14:07:40.596Z,40.70
2018-08-12T14:10:14.927Z,40.60
2018-08-12T14:12:49.164Z,40.30
2018-08-12T14:15:23.445Z,40.40
2018-08-12T14:17:57.824Z,40.10
2018-08-12T14:20:32.044Z,40.10
2018-08-12T14:23:06.236Z,39.10
2018-08-12T14:25:40.544Z,39.70
2018-08-12T14:28:14.888Z,40.20
2018-08-12T14:30:49.176Z,39.60
2018-08-12T14:33:23.463Z,39.10
2018-08-12T14:35:57.793Z,39.80
2018-08-12T14:38:32.024Z,38.60
2018-08-12T14:41:06.361Z,39.20
2018-08-12T14:43:40.640Z,39.40
2018-08-12T14:46:15.048Z,39.90
2018-08-12T14:48:49.396Z,40.20
2018-08-12T14:51:23.625Z,39.80
2018-08-12T14:53:57.868Z,40.10
2018-08-12T14:56:32.104Z,40.60
2018-08-12T14:59:06.356Z,39.10
2018-08-12T15:01:40.554Z,39.10
2018-08-12T15:04:14.963Z,39.40
2018-08-12T15:06:49.309Z,38.90
2018-08-12T15:09:23.525Z,37.30
2018-08-12T15:11:57.868Z,38.90
2018-08-12T15:14:32.175Z,38.90
2018-08-12T15:17:06.491Z,38.70
2018-08-12T15:19:40.656Z,38.50
2018-08-12T15:22:14.955Z,38.60
2018-08-12T15:24:49.268Z,38.50
2018-08-12T15:27:23.548Z,38.30
2018-08-12T15:29:57.800Z,38.70
2018-08-12T15:32:32.115Z,39.40
2018-08-12T15:35:06.860Z,38.50
2018-08-12T15:37:41.520Z,38.20
2018-08-12T15:40:16.111Z,38.60
2018-08-12T15:42:50.404Z,39.50
2018-08-12T15:45:24.825Z,38.70
2018-08-12T15:47:59.171Z,38.60
2018-08-12T15:50:33.404Z,38.00
2018-08-12T15:53:07.800Z,38.70
2018-08-12T15:55:42.155Z,38.20
2018-08-12T15:58:16.428Z,38.00
2018-08-12T16:00:50.648Z,38.40
2018-08-12T16:03:25.010Z,38.50
2018-08-12T16:05:59.620Z,38.90
2018-08-12T16:08:33.795Z,39.00
2018-08-12T16:11:08.185Z,39.30
2018-08-12T16:13:42.443Z,38.70
2018-08-12T16:16:16.861Z,38.40
2018-08-12T16:18:51.152Z,38.50
2018-08-12T16:21:25.564Z,37.90
2018-08-12T16:24:00.394Z,38.30
2018-08-12T16:26:34.780Z,38.60
2018-08-12T16:29:08.961Z,38.60
2018-08-12T16:31:43.305Z,38.40
2018-08-12T16:34:17.700Z,38.20
2018-08-12T16:36:51.881Z,38.70
2018-08-12T16:39:26.182Z,38.50
2018-08-12T16:42:00.406Z,38.30
2018-08-12T16:44:34.737Z,38.10
2018-08-12T16:47:09.074Z,38.30
2018-08-12T16:49:43.395Z,37.50
2018-08-12T16:52:17.736Z,37.70
2018-08-12T16:54:52.080Z,37.70
2018-08-12T16:57:26.329Z,37.70
2018-08-12T17:00:00.648Z,37.90
2018-08-12T17:02:35.099Z,37.60
2018-08-12T17:05:11.800Z,38.00
2018-08-12T17:07:46.017Z,38.50
2018-08-12T17:10:20.838Z,38.70
2018-08-12T17:12:55.219Z,38.70
2018-08-12T17:15:29.388Z,39.20
2018-08-12T17:18:03.660Z,39.10
2018-08-12T17:20:37.908Z,39.00
2018-08-12T17:23:12.296Z,39.00
2018-08-12T17:25:46.585Z,38.80
2018-08-12T17:28:20.804Z,38.60
2018-08-12T17:30:55.044Z,39.00
2018-08-12T17:33:29.359Z,39.80
2018-08-12T17:36:03.580Z,39.60
2018-08-12T17:38:39.097Z,38.20
2018-08-12T17:41:13.463Z,39.80
2018-08-12T17:43:47.740Z,39.30
2018-08-12T17:46:22.124Z,39.20
2018-08-12T17:48:56.420Z,39.20
2018-08-12T17:51:30.788Z,39.20
2018-08-12T17:54:05.054Z,39.00
2018-08-12T17:56:39.292Z,38.70
2018-08-12T17:59:13.480Z,38.70
2018-08-12T18:01:47.826Z,38.50
2018-08-12T18:04:22.186Z,39.20
2018-08-12T18:06:56.636Z,38.20
2018-08-12T18:09:30.956Z,38.10
2018-08-12T18:12:05.444Z,37.60
2018-08-12T18:14:39.799Z,38.00
2018-08-12T18:17:14.112Z,38.00
2018-08-12T18:19:49.001Z,38.40
2018-08-12T18:22:23.248Z,38.20
2018-08-12T18:24:57.606Z,38.00
2018-08-12T18:27:31.888Z,38.10
2018-08-12T18:30:12.016Z,37.80
2018-08-12T18:32:46.168Z,38.30
2018-08-12T18:35:20.516Z,38.40
2018-08-12T18:37:54.919Z,38.10
2018-08-12T18:40:29.119Z,39.60
2018-08-12T18:43:03.557Z,39.70
2018-08-12T18:45:37.755Z,39.60
2018-08-12T18:48:12.080Z,40.20
2018-08-12T18:50:46.480Z,40.90
2018-08-12T18:53:20.839Z,40.50
2018-08-12T18:55:55.169Z,40.90
2018-08-12T18:58:29.352Z,41.70
2018-08-12T19:01:03.784Z,42.90
2018-08-12T19:03:38.295Z,43.30
2018-08-12T19:06:12.541Z,42.80
2018-08-12T19:08:46.848Z,43.80
2018-08-12T19:11:21.408Z,43.90
2018-08-12T19:13:55.744Z,44.10
2018-08-12T19:16:30.160Z,44.00
2018-08-12T19:19:04.756Z,44.40
2018-08-12T19:21:39.075Z,45.50
2018-08-12T19:24:13.372Z,46.00
2018-08-12T19:26:47.775Z,46.70
2018-08-12T19:29:22.072Z,46.50
2018-08-12T19:31:56.368Z,47.10
2018-08-12T19:34:30.565Z,47.00
2018-08-12T19:37:05.232Z,46.70
2018-08-12T19:39:39.552Z,46.30
2018-08-12T19:42:13.872Z,46.00
2018-08-12T19:44:48.048Z,45.90
2018-08-12T19:47:22.380Z,45.80
2018-08-12T19:49:56.896Z,45.70
2018-08-12T19:52:31.160Z,45.60
2018-08-12T19:55:05.964Z,45.60
2018-08-12T19:57:40.192Z,45.60
2018-08-12T20:00:15.273Z,45.50
2018-08-12T20:02:49.391Z,45.50
2018-08-12T20:05:23.636Z,45.50
2018-08-12T20:07:57.990Z,45.50
2018-08-12T20:10:32.409Z,45.40
2018-08-12T20:13:06.687Z,45.50
2018-08-12T20:15:41.033Z,45.50
2018-08-12T20:18:15.368Z,45.50
2018-08-12T20:20:49.564Z,45.50
2018-08-12T20:23:23.902Z,45.50
2018-08-12T20:25:58.783Z,45.50
2018-08-12T20:28:33.008Z,45.50
2018-08-12T20:31:07.317Z,45.60
2018-08-12T20:33:41.660Z,45.00
2018-08-12T20:36:16.005Z,45.60
2018-08-12T20:38:50.217Z,46.00
2018-08-12T20:41:24.544Z,45.80
2018-08-12T20:43:58.906Z,46.20
2018-08-12T20:46:33.320Z,45.60
2018-08-12T20:49:07.576Z,45.60
2018-08-12T20:51:41.859Z,45.70
2018-08-12T20:54:16.374Z,45.70
2018-08-12T20:56:50.600Z,45.80
2018-08-12T20:59:24.950Z,45.90
2018-08-12T21:01:59.276Z,46.00
2018-08-12T21:04:33.652Z,46.00
2018-08-12T21:07:08.091Z,46.10
2018-08-12T21:09:42.285Z,46.10
2018-08-12T21:12:16.619Z,46.20
2018-08-12T21:14:50.908Z,46.20
2018-08-12T21:17:25.139Z,46.30
2018-08-12T21:19:59.563Z,46.40
2018-08-12T21:22:33.883Z,46.40
2018-08-12T21:25:08.815Z,46.50
2018-08-12T21:27:43.068Z,46.60
2018-08-12T21:30:17.266Z,46.60
2018-08-12T21:32:51.600Z,46.70
2018-08-12T21:35:25.896Z,46.70
2018-08-12T21:38:01.160Z,46.80
2018-08-12T21:40:35.405Z,46.90
2018-08-12T21:43:09.696Z,47.00
2018-08-12T21:45:44.005Z,47.00
2018-08-12T21:48:18.252Z,47.00
2018-08-12T21:50:52.524Z,47.10
2018-08-12T21:53:26.928Z,47.10
2018-08-12T21:56:01.224Z,47.10
2018-08-12T21:58:35.428Z,47.20
2018-08-12T22:01:09.752Z,47.30
2018-08-12T22:03:43.951Z,47.80
2018-08-12T22:06:18.258Z,47.30
2018-08-12T22:08:52.588Z,47.30
2018-08-12T22:11:26.948Z,47.40
2018-08-12T22:14:01.905Z,47.30
2018-08-12T22:16:36.222Z,47.20
2018-08-12T22:19:10.407Z,47.40
2018-08-12T22:21:44.799Z,47.40
2018-08-12T22:24:19.116Z,47.50
2018-08-12T22:26:53.548Z,47.50
2018-08-12T22:29:27.859Z,47.50
2018-08-12T22:32:02.264Z,47.70
2018-08-12T22:34:36.732Z,47.50
2018-08-12T22:37:11.068Z,47.60
2018-08-12T22:39:45.377Z,47.40
2018-08-12T22:42:19.768Z,47.40
2018-08-12T22:44:54.108Z,47.10
2018-08-12T22:47:28.311Z,47.60
2018-08-12T22:50:02.590Z,47.60
2018-08-12T22:52:36.907Z,45.40
2018-08-12T22:55:11.100Z,45.70
2018-08-12T22:57:45.312Z,43.70
2018-08-12T23:00:20.077Z,46.80
2018-08-12T23:02:54.296Z,45.20
2018-08-12T23:05:28.599Z,46.00
2018-08-12T23:08:07.503Z,44.60
2018-08-12T23:10:41.727Z,45.90
2018-08-12T23:13:15.916Z,47.80
2018-08-12T23:16:12.143Z,46.20
2018-08-12T23:18:46.362Z,45.60
2018-08-12T23:21:21.129Z,43.80
2018-08-12T23:23:55.650Z,44.30
2018-08-12T23:26:29.804Z,46.30
2018-08-12T23:29:04.580Z,45.80
2018-08-12T23:31:38.837Z,44.50
2018-08-12T23:34:13.100Z,47.00
2018-08-12T23:36:47.504Z,45.30
2018-08-12T23:39:21.867Z,48.00
2018-08-12T23:41:56.126Z,48.70
2018-08-12T23:44:30.316Z,48.90
2018-08-12T23:47:04.625Z,45.50
2018-08-12T23:49:38.859Z,47.90
2018-08-12T23:52:13.232Z,49.00
2018-08-12T23:54:47.448Z,48.90
2018-08-12T23:57:21.716Z,48.40
2018-08-12T23:59:56.109Z,48.70
